Time;durP1;ratioP1;P1;durP2;ratioP2;P2;SDS_P1;SDS_P2;PMS_P1;PMS_P2;Temp;Humidity;BMP_temperature;BMP_pressure;BME280_temperature;BME280_humidity;BME280_pressure;Samples;Min_cycle;Max_cycle;Signal;HPM_P1;HPM_P2
2024/01/08 00:00:54;;;;;;;4.87;2.50;;;;;;;6.93;42.79;103225.84;5100339;28;20024;-71
2024/01/08 00:03:20;;;;;;;6.47;2.67;;;;;;;6.49;43.23;103219.59;5095035;28;20064;-72
2024/01/08 00:05:45;;;;;;;6.30;1.97;;;;;;;6.56;43.62;103221.63;5090970;28;20028;-72
2024/01/08 00:08:11;;;;;;;4.23;2.33;;;;;;;6.99;42.39;103224.34;5112825;28;20099;-72
2024/01/08 00:10:39;;;;;;;4.37;2.47;;;;;;;7.13;42.42;103223.25;5093061;28;20509;-73
2024/01/08 00:13:05;;;;;;;2.03;1.83;;;;;;;6.52;42.66;103222.31;5095664;28;20394;-72
2024/01/08 00:15:30;;;;;;;3.57;2.10;;;;;;;6.48;43.89;103220.41;5087592;28;20020;-72
2024/01/08 00:17:55;;;;;;;5.10;2.40;;;;;;;6.45;43.61;103220.25;5094319;28;20043;-72
2024/01/08 00:20:21;;;;;;;4.60;2.27;;;;;;;6.84;43.07;103220.28;5083898;28;20036;-72
2024/01/08 00:22:46;;;;;;;4.60;2.10;;;;;;;6.15;43.31;103223.22;5091802;28;20024;-73
2024/01/08 00:25:12;;;;;;;4.70;2.10;;;;;;;5.65;44.66;103224.31;5083968;28;20059;-72
2024/01/08 00:27:37;;;;;;;4.83;2.40;;;;;;;6.78;42.46;103220.88;5094262;28;20551;-72
2024/01/08 00:30:03;;;;;;;5.37;1.80;;;;;;;6.26;43.88;103219.44;5083231;28;20469;-72
2024/01/08 00:32:29;;;;;;;3.93;2.30;;;;;;;6.19;43.93;103221.69;5092597;28;20032;-71
2024/01/08 00:34:54;;;;;;;4.20;2.57;;;;;;;6.13;43.71;103230.06;5090355;28;20016;-72
2024/01/08 00:37:19;;;;;;;3.33;2.03;;;;;;;6.08;43.34;103226.38;5091680;28;20023;-72
2024/01/08 00:39:45;;;;;;;1.83;1.37;;;;;;;5.74;43.53;103227.31;5091841;28;20059;-72
2024/01/08 00:42:10;;;;;;;3.77;2.00;;;;;;;6.20;42.13;103229.53;5092230;28;20026;-72
2024/01/08 00:44:35;;;;;;;4.27;2.00;;;;;;;6.21;41.97;103220.94;5091386;28;20442;-72
2024/01/08 00:47:01;;;;;;;2.47;1.73;;;;;;;5.85;42.55;103228.75;5081557;28;20127;-72
2024/01/08 00:49:26;;;;;;;4.63;2.20;;;;;;;5.79;42.66;103233.63;5074050;28;20373;-72
2024/01/08 00:51:52;;;;;;;4.43;2.10;;;;;;;5.68;42.82;103227.91;5110034;28;20032;-72
2024/01/08 00:54:17;;;;;;;5.53;2.40;;;;;;;5.44;43.06;103232.81;5094177;28;20027;-72
2024/01/08 00:56:43;;;;;;;3.63;2.10;;;;;;;5.40;43.24;103230.88;5076590;28;20107;-72
2024/01/08 00:59:08;;;;;;;3.37;1.90;;;;;;;5.53;42.53;103228.06;5073404;28;20440;-71
2024/01/08 01:01:33;;;;;;;4.43;2.20;;;;;;;6.31;41.24;103221.38;5085651;28;20030;-72
2024/01/08 01:03:59;;;;;;;2.63;1.90;;;;;;;6.00;41.25;103219.94;5073707;28;20081;-72
2024/01/08 01:06:24;;;;;;;3.43;1.83;;;;;;;6.80;39.67;103223.56;5087165;28;20031;-72
2024/01/08 01:08:50;;;;;;;4.47;2.70;;;;;;;5.87;41.48;103224.50;5109951;28;20102;-71
2024/01/08 01:11:16;;;;;;;3.10;2.10;;;;;;;5.67;41.73;103220.06;5089060;28;20020;-71
2024/01/08 01:13:41;;;;;;;2.37;1.80;;;;;;;4.75;41.90;103224.97;5092251;28;20028;-71
2024/01/08 01:16:07;;;;;;;4.30;2.20;;;;;;;5.86;41.18;103222.72;5082393;28;20036;-71
2024/01/08 01:18:32;;;;;;;6.23;2.33;;;;;;;5.98;40.92;103229.38;5091125;28;20542;-71
2024/01/08 01:20:58;;;;;;;5.20;2.33;;;;;;;6.88;39.34;103226.47;5073534;28;20028;-72
2024/01/08 01:23:24;;;;;;;2.63;1.50;;;;;;;5.59;41.49;103232.66;5073464;28;20067;-71
2024/01/08 01:25:49;;;;;;;4.40;2.50;;;;;;;5.01;42.58;103241.00;5080274;28;20027;-71
2024/01/08 01:28:15;;;;;;;7.90;2.57;;;;;;;5.56;41.40;103245.47;5104151;28;20442;-71
2024/01/08 01:30:40;;;;;;;4.07;2.73;;;;;;;6.40;40.29;103232.16;5076477;28;20027;-71
2024/01/08 01:33:05;;;;;;;5.43;1.87;;;;;;;6.63;39.43;103241.00;5094913;28;20373;-71
2024/01/08 01:35:31;;;;;;;4.07;2.03;;;;;;;6.32;40.71;103243.91;5092397;28;20028;-71
2024/01/08 01:37:58;;;;;;;5.03;2.93;;;;;;;6.07;40.43;103248.88;5084096;28;20535;-71
2024/01/08 01:40:25;;;;;;;3.57;1.97;;;;;;;4.50;42.85;103253.91;5092173;28;20088;-70
2024/01/08 01:42:54;;;;;;;8.03;2.30;;;;;;;5.93;40.78;103255.06;5072369;28;20289;-71
2024/01/08 01:45:22;;;;;;;5.97;1.93;;;;;;;5.71;40.71;103247.94;5091251;28;20313;-71
2024/01/08 01:47:55;;;;;;;4.43;2.23;;;;;;;5.59;41.49;103268.97;5079717;28;20281;-71
2024/01/08 01:50:24;;;;;;;2.75;2.15;;;;;;;5.38;41.28;103264.50;5072846;28;20042;-71
2024/01/08 01:52:50;;;;;;;3.80;2.70;;;;;;;4.99;41.72;103263.38;5109814;28;20027;-72
2024/01/08 01:55:18;;;;;;;2.80;2.10;;;;;;;4.65;42.66;103271.97;5110707;28;20368;-72
2024/01/08 01:57:46;;;;;;;3.07;2.70;;;;;;;4.50;42.95;103270.31;5094299;28;20512;-71
2024/01/08 02:00:13;;;;;;;4.87;2.10;;;;;;;5.35;41.22;103263.47;5093174;28;20281;-71
2024/01/08 02:02:40;;;;;;;6.17;1.63;;;;;;;4.44;41.78;103262.22;5074298;28;20323;-72
2024/01/08 02:05:06;;;;;;;5.40;2.43;;;;;;;4.86;42.07;103262.75;5072396;28;20282;-71
2024/01/08 02:07:32;;;;;;;7.30;2.80;;;;;;;5.08;41.42;103267.34;5087810;28;20281;-71
2024/01/08 02:09:58;;;;;;;3.67;2.43;;;;;;;6.06;39.91;103256.59;5086559;28;20281;-71
2024/01/08 02:12:26;;;;;;;4.80;2.17;;;;;;;5.22;42.03;103268.03;5079885;28;20102;-71
2024/01/08 02:14:51;;;;;;;2.33;1.87;;;;;;;5.92;40.11;103266.25;5110485;28;20022;-72
2024/01/08 02:17:16;;;;;;;5.90;2.20;;;;;;;5.97;40.14;103267.38;5079753;28;20653;-72
2024/01/08 02:19:42;;;;;;;2.83;1.97;;;;;;;5.68;40.45;103266.84;5071639;28;20054;-72
2024/01/08 02:22:07;;;;;;;5.20;3.07;;;;;;;4.95;42.21;103271.81;5081993;28;20019;-72
2024/01/08 02:24:33;;;;;;;4.23;2.43;;;;;;;5.18;40.59;103268.69;5109728;28;20019;-72
2024/01/08 02:27:00;;;;;;;2.20;1.87;;;;;;;4.88;41.69;103276.66;5083867;28;20118;-72
2024/01/08 02:29:27;;;;;;;4.67;2.70;;;;;;;5.74;39.90;103269.75;5102523;28;20024;-72
2024/01/08 02:31:52;;;;;;;4.17;2.50;;;;;;;5.71;39.95;103268.69;5081600;28;20277;-72
2024/01/08 02:34:21;;;;;;;4.77;2.27;;;;;;;6.12;39.60;103272.44;5110545;28;20280;-71
2024/01/08 02:36:46;;;;;;;6.60;2.57;;;;;;;6.56;37.84;103271.00;5087163;28;20031;-71
2024/01/08 02:39:11;;;;;;;6.27;2.80;;;;;;;5.86;40.38;103269.44;5085891;28;20348;-71
2024/01/08 02:41:37;;;;;;;4.30;2.70;;;;;;;6.39;39.65;103271.97;5090482;28;20080;-72
2024/01/08 02:44:03;;;;;;;10.13;3.07;;;;;;;6.12;39.67;103277.63;5071001;28;20032;-71
2024/01/08 02:46:31;;;;;;;4.67;2.50;;;;;;;4.99;41.32;103284.13;5071918;28;21437;-72
2024/01/08 02:48:58;;;;;;;5.17;2.10;;;;;;;5.20;40.94;103277.44;5109545;28;20284;-72
2024/01/08 02:51:24;;;;;;;6.03;2.57;;;;;;;5.36;41.29;103273.03;5078607;28;20282;-72
2024/01/08 02:53:49;;;;;;;8.27;3.00;;;;;;;5.24;40.27;103276.78;5089561;28;20614;-72
2024/01/08 02:56:21;;;;;;;3.67;2.00;;;;;;;5.58;39.33;103273.28;5109804;28;20532;-72
2024/01/08 02:58:48;;;;;;;7.90;2.67;;;;;;;5.25;40.21;103270.78;5098569;28;20034;-72
2024/01/08 03:01:14;;;;;;;3.83;2.13;;;;;;;5.53;40.97;103273.88;5091851;28;20023;-71
2024/01/08 03:03:39;;;;;;;6.20;2.67;;;;;;;5.87;40.46;103276.41;5094402;28;20767;-71
2024/01/08 03:06:05;;;;;;;5.50;2.47;;;;;;;6.05;39.83;103278.16;5089655;28;20476;-71
2024/01/08 03:08:30;;;;;;;4.43;2.73;;;;;;;5.72;39.61;103279.16;5079907;28;20031;-72
2024/01/08 03:10:55;;;;;;;4.93;2.40;;;;;;;5.69;40.29;103288.50;5093555;28;20055;-71
2024/01/08 03:13:23;;;;;;;4.27;2.73;;;;;;;5.71;39.86;103284.28;5083425;28;20394;-71
2024/01/08 03:15:49;;;;;;;5.97;2.50;;;;;;;5.61;39.38;103283.81;5091645;28;20309;-71
2024/01/08 03:18:14;;;;;;;3.77;2.40;;;;;;;6.49;38.91;103278.47;5081026;28;20290;-71
2024/01/08 03:20:41;;;;;;;5.47;2.37;;;;;;;5.67;40.05;103284.94;5075938;28;20096;-71
2024/01/08 03:23:06;;;;;;;5.03;2.40;;;;;;;5.77;39.69;103285.47;5101285;28;20035;-71
2024/01/08 03:25:31;;;;;;;4.57;2.10;;;;;;;6.02;39.76;103296.19;5103150;28;20325;-72
2024/01/08 03:27:57;;;;;;;3.27;2.50;;;;;;;5.75;40.23;103287.09;5084037;28;20031;-72
2024/01/08 03:30:23;;;;;;;4.20;2.57;;;;;;;5.91;40.54;103303.44;5090386;28;20024;-71
2024/01/08 03:32:48;;;;;;;8.27;2.27;;;;;;;5.15;40.98;103297.06;5097947;28;20024;-71
2024/01/08 03:35:17;;;;;;;13.93;2.30;;;;;;;5.13;41.81;103298.69;5095886;28;20024;-71
2024/01/08 03:37:42;;;;;;;4.13;2.57;;;;;;;5.74;39.91;103292.19;5090991;28;20073;-71
2024/01/08 03:40:08;;;;;;;6.57;2.20;;;;;;;5.12;41.21;103306.38;5078086;28;20304;-71
2024/01/08 03:42:34;;;;;;;4.03;2.20;;;;;;;5.81;40.82;103296.91;5091472;28;20042;-72
2024/01/08 03:44:59;;;;;;;3.77;2.10;;;;;;;5.29;41.15;103297.78;5074951;28;20044;-71
2024/01/08 03:47:25;;;;;;;2.70;2.07;;;;;;;5.17;41.36;103290.25;5093353;28;20494;-71
2024/01/08 03:49:51;;;;;;;3.60;2.23;;;;;;;5.85;40.58;103297.94;5113277;28;20027;-71
2024/01/08 03:52:16;;;;;;;1.67;1.53;;;;;;;4.65;41.81;103296.16;5076281;28;20023;-71
2024/01/08 03:54:42;;;;;;;6.97;2.40;;;;;;;5.38;40.82;103299.94;5090265;28;20057;-71
2024/01/08 03:57:07;;;;;;;3.87;2.37;;;;;;;5.51;40.67;103301.44;5083499;28;20023;-71
2024/01/08 03:59:33;;;;;;;3.63;2.57;;;;;;;5.82;41.54;103309.03;5077058;28;20032;-71
2024/01/08 04:01:58;;;;;;;4.63;1.97;;;;;;;6.33;39.76;103308.03;5092266;28;20027;-72
2024/01/08 04:04:24;;;;;;;4.67;2.23;;;;;;;5.86;40.42;103310.97;5107034;28;20454;-71
2024/01/08 04:06:49;;;;;;;4.93;2.07;;;;;;;5.47;41.23;103309.88;5094798;28;20049;-71
2024/01/08 04:09:16;;;;;;;3.47;2.07;;;;;;;4.21;43.61;103315.34;5081699;28;20042;-70
2024/01/08 04:11:41;;;;;;;4.40;2.13;;;;;;;5.18;42.14;103302.41;5080800;28;20066;-71
2024/01/08 04:14:07;;;;;;;2.60;2.03;;;;;;;5.99;40.67;103301.22;5105608;28;20275;-71
2024/01/08 04:16:32;;;;;;;3.70;2.33;;;;;;;5.48;41.05;103317.75;5093862;28;20043;-71
2024/01/08 04:18:58;;;;;;;4.33;2.53;;;;;;;6.18;40.03;103303.91;5104940;28;20479;-71
2024/01/08 04:21:23;;;;;;;5.10;2.23;;;;;;;5.21;41.49;103307.75;5111849;28;20030;-71
2024/01/08 04:23:49;;;;;;;6.70;2.87;;;;;;;5.07;42.07;103308.75;5080541;28;20561;-71
2024/01/08 04:26:15;;;;;;;5.53;3.00;;;;;;;6.04;40.91;103305.81;5075938;28;20023;-71
2024/01/08 04:28:41;;;;;;;5.07;3.00;;;;;;;5.77;41.41;103300.16;5097673;28;20057;-71
2024/01/08 04:31:06;;;;;;;2.87;2.07;;;;;;;5.11;42.46;103305.50;5112406;28;20277;-71
2024/01/08 04:33:32;;;;;;;3.83;2.07;;;;;;;4.47;42.59;103295.19;5080974;28;20470;-71
2024/01/08 04:35:57;;;;;;;4.17;2.10;;;;;;;5.30;41.90;103317.69;5112362;28;20057;-71
2024/01/08 04:38:22;;;;;;;4.33;2.60;;;;;;;5.47;42.74;103304.69;5087069;28;20108;-71
2024/01/08 04:40:48;;;;;;;9.83;2.83;;;;;;;6.25;40.30;103300.78;5094174;28;20499;-71
2024/01/08 04:43:13;;;;;;;5.60;3.00;;;;;;;6.43;40.38;103305.06;5082872;28;20030;-70
2024/01/08 04:45:38;;;;;;;4.90;2.30;;;;;;;5.80;41.03;103310.69;5073482;28;20048;-71
2024/01/08 04:48:04;;;;;;;4.63;2.60;;;;;;;6.52;40.23;103304.59;5092143;28;20035;-71
2024/01/08 04:50:29;;;;;;;4.87;2.60;;;;;;;5.78;41.00;103313.22;5087802;28;20032;-71
2024/01/08 04:52:55;;;;;;;4.60;2.53;;;;;;;5.28;42.07;103314.13;5092383;28;20028;-71
2024/01/08 04:55:20;;;;;;;3.83;2.40;;;;;;;5.19;42.66;103309.38;5074627;28;20020;-72
2024/01/08 04:57:47;;;;;;;4.07;2.43;;;;;;;4.94;42.75;103307.19;5091004;28;20067;-71
2024/01/08 05:00:13;;;;;;;5.30;2.47;;;;;;;5.13;43.20;103293.50;5106278;28;20034;-71
2024/01/08 05:02:39;;;;;;;6.93;3.00;;;;;;;5.15;42.06;103302.25;5111903;28;20360;-71
2024/01/08 05:05:04;;;;;;;6.97;3.40;;;;;;;5.28;42.63;103302.88;5080484;28;20023;-71
2024/01/08 05:07:30;;;;;;;6.03;2.87;;;;;;;5.24;42.40;103302.72;5073283;28;20053;-72
2024/01/08 05:09:55;;;;;;;4.67;2.10;;;;;;;4.98;43.66;103300.47;5079797;28;20036;-70
2024/01/08 05:12:21;;;;;;;4.43;2.27;;;;;;;5.69;41.86;103301.50;5094412;28;20487;-71
2024/01/08 05:14:46;;;;;;;7.43;3.03;;;;;;;6.22;41.58;103295.44;5083692;28;20032;-71
2024/01/08 05:17:12;;;;;;;3.80;2.60;;;;;;;5.81;41.75;103294.31;5073475;28;20111;-71
2024/01/08 05:19:37;;;;;;;6.23;3.27;;;;;;;5.51;42.72;103283.28;5079349;28;20046;-71
2024/01/08 05:22:03;;;;;;;5.83;2.43;;;;;;;5.05;43.54;103289.59;5076608;28;20027;-71
2024/01/08 05:24:29;;;;;;;3.70;2.20;;;;;;;5.51;43.04;103284.19;5090831;28;20445;-72
2024/01/08 05:26:55;;;;;;;6.23;2.97;;;;;;;5.60;42.73;103284.66;5111321;28;20126;-71
2024/01/08 05:29:20;;;;;;;6.20;3.20;;;;;;;5.72;42.89;103286.94;5107940;28;20860;-71
2024/01/08 05:31:45;;;;;;;5.17;2.67;;;;;;;5.37;42.82;103283.50;5090817;28;20069;-72
2024/01/08 05:34:11;;;;;;;6.37;2.70;;;;;;;6.36;41.88;103277.00;5093590;28;20028;-70
2024/01/08 05:36:40;;;;;;;5.70;2.33;;;;;;;6.37;42.13;103277.06;5075932;28;20081;-71
2024/01/08 05:39:05;;;;;;;6.60;2.10;;;;;;;6.15;42.76;103277.78;5074566;28;20471;-71
2024/01/08 05:41:31;;;;;;;4.63;2.90;;;;;;;5.28;44.42;103276.94;5110509;28;20038;-71
2024/01/08 05:43:56;;;;;;;6.13;2.83;;;;;;;5.87;42.98;103286.81;5092144;28;20043;-71
2024/01/08 05:46:21;;;;;;;3.77;2.43;;;;;;;5.23;43.56;103290.56;5079061;28;20023;-70
2024/01/08 05:48:47;;;;;;;6.20;3.03;;;;;;;5.47;43.84;103274.47;5092707;28;20020;-71
2024/01/08 05:51:12;;;;;;;3.97;2.40;;;;;;;5.52;43.69;103278.19;5093228;28;20028;-71
2024/01/08 05:53:38;;;;;;;7.93;3.13;;;;;;;6.02;42.64;103278.91;5100440;28;20114;-71
2024/01/08 05:56:03;;;;;;;5.80;3.17;;;;;;;5.51;44.54;103279.00;5090533;28;20024;-71
2024/01/08 05:58:32;;;;;;;5.83;2.93;;;;;;;6.26;42.90;103280.88;5091679;28;20030;-72
2024/01/08 06:00:57;;;;;;;4.90;2.93;;;;;;;6.09;42.82;103273.19;5076865;28;20035;-71
2024/01/08 06:03:22;;;;;;;7.23;3.40;;;;;;;5.83;43.49;103278.81;5072817;28;20028;-71
2024/01/08 06:05:48;;;;;;;7.33;3.37;;;;;;;6.52;42.53;103273.41;5087517;28;20096;-71
2024/01/08 06:08:14;;;;;;;6.67;3.13;;;;;;;5.93;43.38;103286.22;5080558;28;20031;-71
2024/01/08 06:10:40;;;;;;;7.43;3.23;;;;;;;6.95;42.24;103281.44;5102298;28;20121;-71
2024/01/08 06:13:07;;;;;;;5.43;2.87;;;;;;;6.89;41.65;103290.66;5087507;28;20071;-71
2024/01/08 06:15:33;;;;;;;4.30;3.00;;;;;;;6.80;41.83;103280.75;5081033;28;20498;-72
2024/01/08 06:17:59;;;;;;;6.37;3.27;;;;;;;6.83;41.76;103283.47;5092748;28;20031;-70
2024/01/08 06:20:24;;;;;;;7.67;3.50;;;;;;;6.74;42.54;103286.53;5088862;28;20032;-70
2024/01/08 06:22:49;;;;;;;6.17;3.40;;;;;;;6.79;42.15;103290.25;5090982;28;20110;-70
2024/01/08 06:25:15;;;;;;;7.07;3.50;;;;;;;6.12;43.88;103285.41;5101414;28;20032;-70
2024/01/08 06:27:40;;;;;;;6.57;3.67;;;;;;;5.72;44.03;103286.06;5091971;28;20023;-70
2024/01/08 06:30:06;;;;;;;6.93;3.90;;;;;;;6.41;43.68;103281.59;5108379;28;20504;-70
2024/01/08 06:32:31;;;;;;;9.60;3.47;;;;;;;6.49;42.94;103279.34;5092113;28;20080;-71
2024/01/08 06:34:57;;;;;;;10.83;3.70;;;;;;;7.20;41.75;103285.09;5108898;28;20027;-71
2024/01/08 06:37:22;;;;;;;5.90;2.57;;;;;;;7.10;41.94;103285.50;5085561;28;20073;-70
2024/01/08 06:39:48;;;;;;;6.77;3.80;;;;;;;6.78;42.45;103277.19;5089840;28;20046;-71
2024/01/08 06:42:13;;;;;;;6.77;3.67;;;;;;;6.68;42.61;103290.59;5091356;28;20027;-70
2024/01/08 06:44:38;;;;;;;5.80;3.00;;;;;;;6.60;42.69;103283.31;5090044;28;20044;-70
2024/01/08 06:47:04;;;;;;;8.33;3.87;;;;;;;6.69;42.68;103288.06;5074349;28;20031;-71
2024/01/08 06:49:29;;;;;;;8.70;3.13;;;;;;;6.60;43.06;103277.25;5071446;28;20430;-71
2024/01/08 06:51:55;;;;;;;4.73;2.97;;;;;;;6.68;42.33;103275.88;5084613;28;20062;-70
2024/01/08 06:54:20;;;;;;;5.87;2.90;;;;;;;6.00;43.53;103287.44;5077259;28;20028;-70
2024/01/08 06:56:45;;;;;;;7.10;3.23;;;;;;;6.86;42.90;103278.41;5073887;28;20090;-71
2024/01/08 06:59:11;;;;;;;8.43;3.97;;;;;;;6.62;42.70;103286.91;5089705;28;20502;-71
2024/01/08 07:01:37;;;;;;;6.77;2.90;;;;;;;6.51;43.04;103277.72;5084012;28;20027;-71
2024/01/08 07:04:02;;;;;;;5.30;3.20;;;;;;;7.07;41.57;103287.97;5090941;28;20114;-71
2024/01/08 07:06:29;;;;;;;8.17;3.63;;;;;;;6.31;43.89;103283.72;5090947;28;20122;-70
2024/01/08 07:08:54;;;;;;;6.83;3.13;;;;;;;6.35;43.78;103286.50;5114950;28;20106;-70
2024/01/08 07:11:24;;;;;;;5.60;3.20;;;;;;;7.22;42.26;103296.44;5091061;28;20114;-70
2024/01/08 07:13:50;;;;;;;7.93;3.10;;;;;;;5.96;44.29;103291.53;5108957;28;20039;-71
2024/01/08 07:16:16;;;;;;;6.13;2.97;;;;;;;6.65;43.32;103301.75;5091934;28;20028;-70
2024/01/08 07:18:41;;;;;;;7.57;3.53;;;;;;;6.59;43.24;103297.16;5074853;28;20472;-71
2024/01/08 07:21:07;;;;;;;7.53;3.70;;;;;;;6.88;41.82;103305.38;5108240;28;20059;-71
2024/01/08 07:23:35;;;;;;;7.07;3.23;;;;;;;6.95;42.23;103302.22;5075272;28;20043;-71
2024/01/08 07:26:00;;;;;;;7.03;3.10;;;;;;;7.08;41.81;103307.97;5088638;28;20036;-71
2024/01/08 07:28:26;;;;;;;10.43;5.10;;;;;;;6.95;41.88;103304.84;5093830;28;20032;-71
2024/01/08 07:30:54;;;;;;;6.73;3.50;;;;;;;8.09;40.09;103294.78;5089043;28;20519;-70
2024/01/08 07:33:21;;;;;;;6.33;3.07;;;;;;;6.70;42.19;103304.53;5093012;28;20097;-71
2024/01/08 07:35:46;;;;;;;7.97;3.40;;;;;;;6.83;41.33;103296.47;5096067;28;20032;-71
2024/01/08 07:38:12;;;;;;;6.43;3.07;;;;;;;6.37;42.62;103304.75;5079294;28;20029;-71
2024/01/08 07:40:37;;;;;;;6.60;3.20;;;;;;;7.26;40.91;103313.09;5074335;28;20119;-71
2024/01/08 07:43:02;;;;;;;6.20;2.70;;;;;;;7.61;39.71;103306.78;5092722;28;20069;-70
2024/01/08 07:45:29;;;;;;;5.43;2.70;;;;;;;6.46;41.14;103310.41;5094604;28;20055;-71
2024/01/08 07:47:56;;;;;;;7.30;3.70;;;;;;;6.97;40.81;103318.78;5096756;28;20039;-70
2024/01/08 07:50:22;;;;;;;2.47;2.13;;;;;;;7.13;40.31;103311.69;5093392;28;20020;-71
2024/01/08 07:52:47;;;;;;;5.50;2.93;;;;;;;7.24;40.56;103314.72;5088107;28;20394;-71
2024/01/08 07:55:13;;;;;;;7.23;3.43;;;;;;;7.27;40.54;103320.94;5090627;28;20023;-70
2024/01/08 07:57:38;;;;;;;3.73;2.27;;;;;;;7.77;39.67;103312.63;5086662;28;20039;-71
2024/01/08 08:00:06;;;;;;;8.77;3.23;;;;;;;7.62;39.48;103318.97;5094455;28;20026;-71
2024/01/08 08:02:32;;;;;;;6.17;3.10;;;;;;;7.51;39.89;103311.53;5083362;28;20084;-71
2024/01/08 08:04:58;;;;;;;6.63;3.17;;;;;;;7.47;39.78;103314.00;5075128;28;20054;-72
2024/01/08 08:07:23;;;;;;;8.00;2.77;;;;;;;6.24;42.52;103313.69;5082279;28;20031;-71
2024/01/08 08:09:49;;;;;;;5.80;2.90;;;;;;;6.81;41.25;103305.03;5088330;28;20035;-71
2024/01/08 08:12:14;;;;;;;4.97;3.07;;;;;;;7.27;41.40;103300.13;5107001;28;20032;-71
2024/01/08 08:14:39;;;;;;;7.77;2.50;;;;;;;6.15;42.65;103313.25;5073624;28;20472;-71
2024/01/08 08:17:05;;;;;;;6.73;2.83;;;;;;;7.00;40.73;103310.22;5093982;28;20061;-71
2024/01/08 08:19:30;;;;;;;13.03;3.37;;;;;;;7.91;40.17;103316.69;5080078;28;20084;-71
2024/01/08 08:21:56;;;;;;;4.13;2.47;;;;;;;7.38;41.20;103320.53;5076470;28;20490;-71
2024/01/08 08:24:22;;;;;;;10.03;2.70;;;;;;;6.61;42.07;103313.69;5084169;28;20017;-71
2024/01/08 08:26:47;;;;;;;4.90;3.20;;;;;;;7.22;41.00;103322.47;5084430;28;20032;-70
2024/01/08 08:29:13;;;;;;;6.63;3.23;;;;;;;7.08;41.57;103328.78;5022491;28;20049;-71
2024/01/08 08:31:38;;;;;;;4.30;2.23;;;;;;;6.08;42.89;103335.44;5047924;28;20037;-71
2024/01/08 08:34:03;;;;;;;4.67;2.77;;;;;;;6.36;42.09;103339.34;5051131;28;20025;-71
2024/01/08 08:36:29;;;;;;;1.67;1.33;;;;;;;5.58;42.18;103330.38;5041001;28;20545;-72
2024/01/08 08:38:56;;;;;;;4.60;2.30;;;;;;;6.36;41.11;103335.06;5051305;28;20036;-71
2024/01/08 08:41:21;;;;;;;7.37;3.10;;;;;;;6.17;41.34;103338.47;5049597;28;20051;-71
2024/01/08 08:43:48;;;;;;;5.03;2.70;;;;;;;7.34;39.67;103339.44;5049943;28;20432;-71
2024/01/08 08:46:14;;;;;;;3.53;2.40;;;;;;;7.57;39.15;103343.91;5050118;28;20037;-71
2024/01/08 08:48:39;;;;;;;4.63;2.17;;;;;;;6.82;40.27;103346.69;5049235;28;20032;-72
2024/01/08 08:51:05;;;;;;;3.17;2.10;;;;;;;7.12;39.73;103348.91;5049527;28;20025;-72
2024/01/08 08:53:30;;;;;;;3.43;2.23;;;;;;;6.77;39.42;103354.28;5050003;28;20029;-71
2024/01/08 08:55:55;;;;;;;5.63;2.33;;;;;;;7.29;39.22;103349.63;5050245;28;20041;-71
2024/01/08 08:58:23;;;;;;;2.40;1.83;;;;;;;7.04;38.93;103355.47;5049674;28;20056;-71
2024/01/08 09:00:49;;;;;;;4.73;2.10;;;;;;;7.54;38.53;103355.91;5049999;28;20035;-71
2024/01/08 09:03:15;;;;;;;4.40;2.43;;;;;;;6.46;40.15;103362.38;5049612;28;20527;-71
2024/01/08 09:05:40;;;;;;;5.37;2.40;;;;;;;6.05;40.65;103366.44;5049730;28;20053;-70
2024/01/08 09:08:06;;;;;;;4.03;2.63;;;;;;;6.73;40.26;103361.84;5050990;28;20078;-71
2024/01/08 09:10:31;;;;;;;4.00;1.10;;;;;;;5.66;40.80;103350.63;5048536;28;20029;-71
2024/01/08 09:12:57;;;;;;;3.93;2.43;;;;;;;5.88;41.48;103366.47;5051384;28;20043;-72
2024/01/08 09:15:22;;;;;;;7.33;2.47;;;;;;;6.32;40.12;103359.13;5051697;28;20492;-71
2024/01/08 09:17:47;;;;;;;6.07;2.13;;;;;;;7.16;39.49;103358.63;5048814;28;20306;-71
2024/01/08 09:20:13;;;;;;;3.57;2.17;;;;;;;7.55;38.45;103368.97;5050590;28;20029;-71
2024/01/08 09:22:38;;;;;;;4.03;2.33;;;;;;;6.49;39.82;103372.03;5048742;28;20421;-70
2024/01/08 09:25:04;;;;;;;3.37;1.80;;;;;;;7.30;38.89;103367.91;5050214;28;20013;-70
2024/01/08 09:27:31;;;;;;;3.73;2.03;;;;;;;6.54;40.28;103374.00;5047770;28;20025;-71
2024/01/08 09:29:57;;;;;;;2.67;1.73;;;;;;;6.23;40.96;103374.25;5047890;28;20025;-71
2024/01/08 09:32:23;;;;;;;3.97;2.47;;;;;;;6.06;41.30;103376.91;5029084;28;20115;-71
2024/01/08 09:34:48;;;;;;;4.00;1.77;;;;;;;7.53;39.16;103381.06;5048979;28;20127;-71
2024/01/08 09:37:14;;;;;;;3.77;2.47;;;;;;;6.80;40.21;103389.94;5045893;28;20029;-71
2024/01/08 09:39:39;;;;;;;5.13;2.67;;;;;;;7.06;39.90;103382.44;5046683;28;20040;-71
2024/01/08 09:42:07;;;;;;;3.30;1.97;;;;;;;5.98;41.43;103388.63;5049769;28;20029;-72
2024/01/08 09:44:36;;;;;;;4.60;2.87;;;;;;;6.83;40.61;103392.69;5049912;28;20044;-71
2024/01/08 09:47:03;;;;;;;4.13;2.33;;;;;;;6.42;41.17;103391.63;5044473;28;20044;-71
2024/01/08 09:49:32;;;;;;;2.30;1.90;;;;;;;6.97;40.50;103391.59;5043680;28;20032;-70
2024/01/08 09:52:01;;;;;;;4.57;2.23;;;;;;;6.37;41.75;103393.97;5050446;28;20028;-72
2024/01/08 09:54:29;;;;;;;6.33;2.37;;;;;;;6.14;41.36;103397.16;5048834;28;20020;-71
2024/01/08 09:56:55;;;;;;;3.07;2.13;;;;;;;6.98;40.46;103389.91;5048774;28;20027;-71
2024/01/08 09:59:20;;;;;;;4.00;2.23;;;;;;;6.13;41.87;103400.56;5048357;28;20037;-71
2024/01/08 10:01:46;;;;;;;3.80;1.97;;;;;;;6.95;40.71;103401.03;5049581;28;20502;-71
2024/01/08 10:04:11;;;;;;;5.07;2.43;;;;;;;7.60;39.63;103403.91;5045662;28;20561;-71
2024/01/08 10:06:39;;;;;;;4.50;1.83;;;;;;;6.36;40.91;103406.91;5029472;28;20018;-71
2024/01/08 10:09:04;;;;;;;4.77;2.50;;;;;;;6.19;41.70;103398.28;5038207;28;20495;-71
2024/01/08 10:11:30;;;;;;;5.27;2.43;;;;;;;6.07;41.51;103401.16;5049746;28;20033;-71
2024/01/08 10:13:56;;;;;;;3.93;2.43;;;;;;;5.70;43.85;103412.25;5046003;28;20569;-70
2024/01/08 10:16:25;;;;;;;3.77;1.93;;;;;;;6.80;41.41;103400.34;5027170;28;20022;-71
2024/01/08 10:18:51;;;;;;;4.13;2.30;;;;;;;6.44;40.99;103396.06;5046802;28;20443;-71
2024/01/08 10:21:17;;;;;;;3.60;2.00;;;;;;;6.49;40.78;103393.69;5047380;28;20025;-71
2024/01/08 10:23:43;;;;;;;4.00;2.23;;;;;;;6.59;41.31;103402.81;5044698;28;20507;-71
2024/01/08 10:26:13;;;;;;;2.73;2.00;;;;;;;6.43;40.98;103396.00;5038337;28;20067;-71
2024/01/08 10:28:39;;;;;;;6.57;2.57;;;;;;;7.12;40.19;103399.19;5047068;28;20119;-71
2024/01/08 10:31:06;;;;;;;2.10;1.60;;;;;;;5.89;42.00;103404.59;5049984;28;20044;-71
2024/01/08 10:33:33;;;;;;;5.60;2.53;;;;;;;6.55;41.03;103377.50;5046155;28;20037;-71
2024/01/08 10:36:01;;;;;;;4.83;2.07;;;;;;;5.97;41.68;103381.59;5046432;28;20509;-71
2024/01/08 10:38:30;;;;;;;3.10;2.10;;;;;;;5.56;42.19;103380.41;5037561;28;20460;-71
2024/01/08 10:40:56;;;;;;;3.13;1.73;;;;;;;5.70;41.90;103378.50;5048186;28;20032;-71
2024/01/08 10:43:22;;;;;;;5.20;2.67;;;;;;;5.90;41.98;103380.41;5046270;28;20032;-71
2024/01/08 10:45:52;;;;;;;7.77;2.63;;;;;;;6.21;40.83;103371.56;5046443;28;20045;-71
2024/01/08 10:48:21;;;;;;;3.43;2.57;;;;;;;5.95;40.65;103371.16;5039320;28;20044;-71
2024/01/08 10:50:51;;;;;;;6.87;2.70;;;;;;;5.63;41.11;103373.81;5047216;28;20033;-70
2024/01/08 10:53:35;;;;;;;7.57;3.03;;;;;;;6.64;39.91;103374.44;5047281;28;20033;-71
2024/01/08 10:56:05;;;;;;;4.33;2.37;;;;;;;6.54;40.19;103374.00;5046627;28;20485;-71
2024/01/08 10:58:35;;;;;;;2.30;1.77;;;;;;;5.78;41.00;103379.78;5047534;28;20028;-71
2024/01/08 11:01:01;;;;;;;3.57;2.00;;;;;;;6.32;39.84;103376.38;5038744;28;20036;-71
2024/01/08 11:03:27;;;;;;;2.57;2.00;;;;;;;5.99;39.77;103384.31;5063204;28;20457;-71
2024/01/08 11:05:55;;;;;;;4.70;3.30;;;;;;;6.20;40.43;103374.97;5064479;28;20060;-72
2024/01/08 11:08:21;;;;;;;6.53;3.30;;;;;;;7.42;37.67;103366.69;5047713;28;20063;-72
2024/01/08 11:10:46;;;;;;;7.17;2.90;;;;;;;7.24;38.49;103356.34;5047210;28;20116;-72
2024/01/08 11:13:13;;;;;;;3.63;2.00;;;;;;;6.62;38.82;103364.88;5049250;28;20103;-72
2024/01/08 11:15:43;;;;;;;5.67;2.20;;;;;;;6.57;38.93;103368.06;5044348;28;20489;-71
2024/01/08 11:18:23;;;;;;;3.50;1.97;;;;;;;6.33;39.64;103360.00;5029276;28;20025;-72
2024/01/08 11:20:49;;;;;;;2.93;1.83;;;;;;;6.64;38.69;103371.84;5043167;28;20483;-71
2024/01/08 11:23:40;;;;;;;5.07;2.07;;;;;;;7.04;39.17;103353.75;5049536;28;20056;-71
2024/01/08 11:26:10;;;;;;;5.60;2.20;;;;;;;5.93;40.81;103349.44;5047477;28;20546;-71
2024/01/08 11:28:37;;;;;;;6.20;2.70;;;;;;;6.18;41.73;103340.28;5047946;28;20040;-71